Frostburg, Maryland
Current Conditions -  °F | °C
As of 11:09 AM on Wednesday 26 Nov 2014 (Local Time) from KCBE Reporting Station
Overcast Overcast  
Wind Chill: 34°   Ceiling: 300
Heat Index: 34°   Visibility: 0.25mi
Dew Point: 34°   Wind: 0mph
Humidity: 100%   Direction: NA
Pressure: 30.11"   Gusts: NA
Location:  39.66°N, 78.93°W
Report Text: KCBE 261609Z AUTO 00000KT 1/4SM OVC003 01/01 A3011 RMK AO1
Loading
Personal Weather Stations






























Interactive Weather Map New forecast layout! Learn more

10-Day Weather Forecast

Advertisements
Track Severe Weather on mobile